Station info - map view · info · telemetry · weather · raw · status · beacons · messages · bulletins · browse · moving · my account
Callsign, ship name or locator: Clear       
It is possible to search using wildcards (*?) after a prefix. Example: OH*
APRS station OM4MO-7 - show graphs
Map loading...
Comment: YAESU FT2D DE PETER 145,500
Mic-E message: En route
Location: 48°07.24' N 16°24.64' E - locator JN88EC98GX - show map - static map
1.0 miles East bearing 69° from Leopoldsdorf, Politischer Bezirk Wien Umgebung, Lower Austria, Austria [?]
2.3 miles East bearing 74° from Hennersdorf, Politischer Bezirk Mödling, Lower Austria, Austria
6.3 miles South bearing 164° from Vienna, Politischer Bezirk Wien (Stadt), Vienna, Austria
32.1 miles West bearing 267° from Bratislava, Bratislavský, Slovakia
Last position: 2018-04-22 12:35:35 EDT (54s ago)
2018-04-22 18:35:35 CEST local time at Leopoldsdorf, Austria [?]
Altitude: 285 ft
Course: 287°
Speed: 59 MPH
Device: Yaesu: FT2D (ht)
Last path: OM4MO-7>TX0W24 via WIDE1-1,WIDE2-1,qAR,OE1XJW-10 (good)
Positions stored: 1745
Packet rate: 142 seconds between packets on average during 7089 seconds.
Other SSIDs: OM4MO-1 OM4MO-10 OM4MO-15
Stations near current position of OM4MO-7 - show more
callsign distance last heard - EDT      callsign distance last heard - EDT
DW42770.8 miles 279°2018-04-22 12:32:54 OE3VAW-90.8 miles 247°2018-04-22 02:41:20
OE3DMB-71.1 miles 209°2018-04-22 01:43:53 OE3WTS-92.0 miles 315°2018-04-09 17:48:03
OE1XKR-102.2 miles 311°2018-04-22 12:13:37 OE1MRC2.5 miles 331°2018-04-16 10:31:23
OE3GVB2.6 miles 168°2018-04-14 01:59:50 N3640117_2.6 miles 160°2018-03-25 22:07:14
N36401172.6 miles 160°2018-03-25 22:06:06 R 1/70 EL2.7 miles 337°2018-04-22 12:25:58
OE1KYA-93.0 miles 49°2018-04-22 12:35:39 OE1GYA-93.0 miles 49°2018-04-16 17:12:06
OE1KYG-93.0 miles 49°2018-04-22 06:51:45 OE3KLU3.2 miles 67°2018-04-12 01:37:51
OE3KLU-33.2 miles 67°2018-04-01 14:24:17 OE3XMC-DP3.2 miles 67°2018-04-22 12:24:42
OE1IWA-103.2 miles 292°2018-04-22 12:34:48 OE1IWA-113.2 miles 292°2018-04-22 12:30:24
OE3KLU-73.2 miles 67°2018-04-06 05:29:56 OE3KLU-93.2 miles 67°2018-04-22 12:29:22
Stations which heard OM4MO-7 directly on radio –
callsign pkts first heard - EDT last heard longest (tx => rx) longest at - EDT
OE1XQR 39 2018-04-08 09:22:52 2018-04-22 12:35:36 JN88PF > JN88EE 43.4 miles 266° 2018-04-08 09:22:52
OE6XTR 46 2018-04-08 08:33:27 2018-04-22 12:27:35 JN98KN > JN77VN 156.7 miles 245° 2018-04-22 09:59:57
HG1PNY-1 4 2018-04-08 08:55:55 2018-04-22 11:29:24 JN88WG > JN87TN 49.8 miles 192° 2018-04-08 08:55:55
OE3XKR 21 2018-04-08 10:03:35 2018-04-22 12:18:19 JN88NB > JN88EN 47.2 miles 318° 2018-04-22 11:58:17
OE5ERN-10 8 2018-04-08 12:02:08 2018-04-08 12:22:27 JN78IC > JN78DH 23.5 miles 309° 2018-04-08 12:02:08
OE1SSU-10 18 2018-04-08 10:41:40 2018-04-22 12:31:38 JN88KA > JN88DD 27.8 miles 286° 2018-04-22 12:09:31
OE3XXR 1 2018-04-13 15:16:46 2018-04-13 15:16:46 JN78GD > JN78GD 2.3 miles 304° 2018-04-13 15:16:46
OE5XIM-10 17 2018-04-08 11:57:09 2018-04-13 15:21:02 JN78KD > JN78DN 39.3 miles 317° 2018-04-13 15:06:07
OM3KHE-2 2 2018-04-08 07:58:30 2018-04-08 07:59:48 JN98IQ > JN99JC 28.2 miles 7° 2018-04-08 07:59:48
OE5XGL-10 7 2018-04-08 12:26:33 2018-04-08 12:44:34 JN78BD > JN67VV 23.3 miles 221° 2018-04-08 12:26:33
OE1SSU-12 3 2018-04-08 10:40:40 2018-04-13 13:40:22 JN88FC > JN88DD 7.1 miles 278° 2018-04-13 13:39:22
OE5REO-10 3 2018-04-08 12:06:50 2018-04-08 12:32:38 JN78GD > JN77BV 26.3 miles 233° 2018-04-08 12:06:50
OE2XZR 12 2018-04-08 13:14:42 2018-04-16 10:22:47 JN67MT > JN67NT 4.6 miles 107° 2018-04-08 15:42:19
OE1IWA-10 1 2018-04-08 10:37:42 2018-04-08 10:37:42 JN88ED > JN88ED 0.4 miles 7° 2018-04-08 10:37:42
OE3XIA-10 4 2018-04-13 13:30:30 2018-04-22 12:25:29 JN88ND > JN88CF 41.7 miles 281° 2018-04-22 11:30:26
OE2XZR-10 27 2018-04-08 13:14:41 2018-04-16 11:33:55 JN67NV > JN67NT 5.6 miles 187° 2018-04-08 13:17:57
OE3MZC-2 9 2018-04-08 11:03:40 2018-04-13 14:15:10 JN78VE > JN78XE 7.8 miles 82° 2018-04-13 14:15:10
OE3XDA-10 7 2018-04-08 11:50:06 2018-04-13 15:11:02 JN78GD > JN78LA 19.7 miles 114° 2018-04-08 12:07:52
OE3REC-11 33 2018-04-08 09:34:37 2018-04-22 12:22:24 JN88ND > JN88HE 23.9 miles 276° 2018-04-08 09:34:37
OE1ACM-12 5 2018-04-08 10:29:36 2018-04-22 12:27:34 JN88GD > JN88FF 6.7 miles 328° 2018-04-22 12:27:34
HG7PDK-2 3 2018-04-08 08:33:17 2018-04-22 10:49:59 JN88WH > JN97KR 60.9 miles 131° 2018-04-22 10:49:59
HG5PGE-2 31 2018-04-08 08:22:07 2018-04-22 11:02:53 JN98KN > JN97FQ 64.3 miles 194° 2018-04-22 09:59:53
OE2XGR-10 1 2018-04-08 15:41:47 2018-04-08 15:41:47 JN67MT > JN67OH 37.0 miles 164° 2018-04-08 15:41:47
OM0OUX-1 6 2018-04-22 09:53:59 2018-04-22 10:38:53 JN98AH > JN98KJ 40.3 miles 81° 2018-04-22 10:38:53
OE3PAS-15 1 2018-04-22 12:34:51 2018-04-22 12:34:51 JN88FC > JN87DX 11.3 miles 213° 2018-04-22 12:34:51
OE5EEP-10 12 2018-04-08 12:30:36 2018-04-08 12:53:10 JN78AC > JN67TX 23.7 miles 247° 2018-04-08 12:30:36
OE3RNB-10 1 2018-04-08 10:58:45 2018-04-08 10:58:45 JN78XD > JN88AG 9.9 miles 26° 2018-04-08 10:58:45
OE3PDB-6 6 2018-04-08 10:08:44 2018-04-13 14:21:12 JN88KA > JN88BG 39.4 miles 292° 2018-04-13 13:14:13
OE3PDB-3 11 2018-04-08 10:08:44 2018-04-13 14:21:12 JN88KA > JN88BG 39.6 miles 292° 2018-04-13 13:14:13
OE3PDB-13 2 2018-04-08 10:58:45 2018-04-08 11:09:17 JN78UE > JN88BF 16.7 miles 76° 2018-04-08 11:09:17
OE3XLR 77 2018-04-08 10:59:32 2018-04-22 12:08:41 JN78EF > JN77TX 61.1 miles 107° 2018-04-08 12:17:03
OE3MUC-15 2 2018-04-08 12:24:29 2018-04-13 15:17:46 JN78CE > JN78SK 65.1 miles 75° 2018-04-08 12:24:29
OM1ATS-1 16 2018-04-08 09:20:48 2018-04-22 11:26:17 JN88RG > JN88PC 13.3 miles 208° 2018-04-13 12:12:24
OM1ATS-2 29 2018-04-08 09:25:57 2018-04-22 12:01:22 JN88PF > JN88ND 7.7 miles 240° 2018-04-08 09:25:57
OE5XSO-10 1 2018-04-08 12:39:45 2018-04-08 12:39:45 JN68WA > JN68SB 14.7 miles 291° 2018-04-08 12:39:45
OE3PDB-10 2 2018-04-08 10:22:19 2018-04-08 10:37:43 JN88HC > JN88BG 26.8 miles 292° 2018-04-08 10:22:19
OE5WWO 4 2018-04-08 12:08:52 2018-04-13 15:19:15 JN78JD > JN78DH 26.3 miles 296° 2018-04-13 15:07:08
OE3PDB-1 3 2018-04-08 10:22:18 2018-04-22 12:21:23 JN88HC > JN88HD 4.1 miles 328° 2018-04-22 12:21:23
OM0OPA-1 2 2018-04-13 11:44:16 2018-04-22 10:48:58 JN88XH > JN98CC 19.5 miles 143° 2018-04-22 10:48:58
OE5XLM-10 1 2018-04-08 12:21:27 2018-04-08 12:21:27 JN78DE > JN78CH 6.7 miles 354° 2018-04-08 12:21:27
OE5LHM-10 1 2018-04-13 15:13:05 2018-04-13 15:13:05 JN78IC > JN78GH 15.7 miles 331° 2018-04-13 15:13:05
OE3XMC-10 4 2018-04-08 10:28:24 2018-04-22 12:30:11 JN88GD > JN88FD 1.8 miles 258° 2018-04-22 12:28:35
OE3ZK-13 2 2018-04-08 10:09:35 2018-04-13 13:32:34 JN88KA > JN88DH 32.4 miles 307° 2018-04-08 10:09:35
OE1XJW-10 11 2018-04-08 10:34:38 2018-04-22 12:35:35 JN88CC > JN88EG 14.4 miles 32° 2018-04-08 10:45:23
OE5XOL-10 2 2018-04-08 12:15:02 2018-04-08 22:31:28 JN78CE > JN78DJ 15.4 miles 6° 2018-04-08 22:31:28

Only position packets which were originated by the station are shown here. The range statistics show some extra long hops, because some digipeaters do not correctly add themselves to the digipeater path. Please check the raw packets.
About this site
This page shows real-time information collected from the Automatic Position Reporting System Internet network (APRS-IS). APRS is used by amateur (ham) radio operators to transmit real-time position information, weather data, telemetry and messages over the radio. A vehicle equipped with a GPS receiver, a VHF transmitter or HF transceiver and a small computer device called a tracker transmits it's location, speed and course in a small data packet, which is then received by a nearby iGate receiving site which forwards the packet on the Internet. Systems connected to the Internet can send information on the APRS-IS without a radio transmitter, or collect and display information transmitted anywhere in the world.
FAQ · Blog · Discussion group · Linking to aprs.fi · AIS sites · Service status · Database statistics · Advertising on aprs.fi · Technical details · API · Change log · Planned changes · Credits and thanks · Terms Of Service · iPhone/iPad APRS